createdAt,value
2017-12-13T00:01:58.884Z,7.15
2017-12-13T00:04:26.405Z,8.13
2017-12-13T00:06:53.914Z,7.97
2017-12-13T00:09:21.435Z,8.13
2017-12-13T00:11:48.940Z,7.32
2017-12-13T00:14:16.466Z,7.57
2017-12-13T00:16:43.993Z,8.57
2017-12-13T00:19:11.761Z,7.43
2017-12-13T00:21:39.288Z,6.78
2017-12-13T00:24:06.904Z,7.57
2017-12-13T00:26:34.520Z,7.18
2017-12-13T00:29:02.054Z,6.18
2017-12-13T00:31:29.581Z,6.00
2017-12-13T00:33:57.124Z,6.53
2017-12-13T00:36:24.628Z,6.55
2017-12-13T00:38:52.164Z,6.10
2017-12-13T00:41:19.704Z,6.00
2017-12-13T00:43:47.239Z,6.15
2017-12-13T00:46:14.773Z,5.97
2017-12-13T00:48:42.289Z,5.55
2017-12-13T00:51:09.795Z,5.43
2017-12-13T00:53:37.313Z,5.75
2017-12-13T00:56:04.830Z,5.35
2017-12-13T00:58:32.354Z,5.87
2017-12-13T01:00:59.854Z,6.75
2017-12-13T01:03:28.255Z,7.00
2017-12-13T01:05:55.811Z,7.03
2017-12-13T01:08:23.345Z,5.25
2017-12-13T01:10:50.879Z,6.53
2017-12-13T01:13:18.397Z,6.37
2017-12-13T01:15:45.919Z,5.60
2017-12-13T01:18:13.454Z,5.57
2017-12-13T01:20:40.999Z,4.10
2017-12-13T01:23:08.530Z,5.05
2017-12-13T01:25:36.040Z,4.95
2017-12-13T01:28:03.580Z,5.07
2017-12-13T01:30:31.116Z,4.12
2017-12-13T01:32:58.624Z,4.18
2017-12-13T01:35:26.135Z,4.60
2017-12-13T01:37:53.656Z,5.10
2017-12-13T01:40:21.186Z,5.18
2017-12-13T01:42:48.704Z,4.28
2017-12-13T01:45:16.325Z,4.53
2017-12-13T01:47:43.855Z,4.55
2017-12-13T01:50:11.379Z,5.18
2017-12-13T01:52:38.874Z,5.15
2017-12-13T01:55:06.424Z,5.25
2017-12-13T01:57:33.946Z,5.90
2017-12-13T02:00:01.461Z,5.25
2017-12-13T02:02:28.957Z,5.25
2017-12-13T02:04:56.461Z,5.80
2017-12-13T02:07:24.021Z,4.65
2017-12-13T02:09:51.546Z,4.75
2017-12-13T02:12:19.084Z,4.50
2017-12-13T02:14:46.992Z,5.18
2017-12-13T02:17:14.531Z,4.72
2017-12-13T02:19:42.221Z,5.20
2017-12-13T02:22:09.730Z,5.35
2017-12-13T02:24:37.250Z,5.15
2017-12-13T02:27:04.764Z,5.30
2017-12-13T02:29:32.309Z,5.80
2017-12-13T02:31:59.826Z,5.35
2017-12-13T02:34:27.336Z,4.45
2017-12-13T02:36:54.895Z,4.15
2017-12-13T02:39:22.439Z,5.30
2017-12-13T02:41:49.941Z,5.07
2017-12-13T02:44:17.693Z,5.70
2017-12-13T02:46:45.210Z,5.00
2017-12-13T02:49:12.725Z,5.28
2017-12-13T02:51:40.287Z,5.12
2017-12-13T02:54:07.801Z,4.85
2017-12-13T02:56:35.322Z,5.50
2017-12-13T02:59:02.833Z,4.80
2017-12-13T03:01:30.345Z,5.28
2017-12-13T03:03:57.855Z,5.45
2017-12-13T03:06:25.386Z,5.20
2017-12-13T03:08:52.882Z,5.93
2017-12-13T03:11:20.418Z,5.80
2017-12-13T03:13:47.961Z,5.80
2017-12-13T03:16:15.578Z,5.57
2017-12-13T03:18:43.115Z,5.28
2017-12-13T03:21:10.639Z,7.30
2017-12-13T03:23:38.225Z,5.50
2017-12-13T03:26:05.755Z,5.35
2017-12-13T03:28:33.290Z,5.95
2017-12-13T03:31:00.806Z,5.00
2017-12-13T03:33:28.381Z,5.12
2017-12-13T03:35:55.875Z,4.75
2017-12-13T03:38:23.395Z,5.35
2017-12-13T03:40:50.935Z,6.10
2017-12-13T03:43:18.481Z,5.60
2017-12-13T03:45:46.027Z,4.57
2017-12-13T03:48:13.547Z,4.40
2017-12-13T03:50:41.085Z,4.15
2017-12-13T03:53:08.590Z,5.05
2017-12-13T03:55:36.181Z,4.57
2017-12-13T03:58:03.737Z,5.30
2017-12-13T04:00:31.240Z,3.70
2017-12-13T04:02:58.785Z,3.90
2017-12-13T04:05:26.311Z,4.35
2017-12-13T04:07:53.853Z,4.70
2017-12-13T04:10:21.367Z,4.70
2017-12-13T04:12:48.934Z,4.40
2017-12-13T04:15:16.490Z,4.60
2017-12-13T04:17:44.010Z,4.37
2017-12-13T04:20:11.500Z,4.10
2017-12-13T04:22:38.996Z,4.70
2017-12-13T04:25:06.545Z,4.03
2017-12-13T04:27:34.055Z,3.70
2017-12-13T04:30:01.586Z,4.55
2017-12-13T04:32:29.096Z,4.15
2017-12-13T04:34:56.604Z,4.57
2017-12-13T04:37:24.140Z,3.40
2017-12-13T04:39:51.689Z,3.50
2017-12-13T04:42:19.178Z,4.20
2017-12-13T04:44:46.696Z,3.50
2017-12-13T04:47:14.232Z,3.33
2017-12-13T04:49:41.795Z,3.70
2017-12-13T04:52:09.316Z,3.65
2017-12-13T04:54:36.838Z,3.67
2017-12-13T04:57:04.340Z,3.67
2017-12-13T04:59:31.852Z,3.85
2017-12-13T05:01:59.372Z,5.10
2017-12-13T05:04:26.892Z,6.12
2017-12-13T05:06:54.451Z,5.55
2017-12-13T05:09:21.951Z,4.35
2017-12-13T05:11:49.598Z,4.35
2017-12-13T05:14:17.092Z,4.00
2017-12-13T05:16:44.608Z,3.97
2017-12-13T05:19:12.180Z,3.95
2017-12-13T05:21:39.706Z,4.50
2017-12-13T05:24:07.231Z,4.12
2017-12-13T05:26:34.747Z,4.90
2017-12-13T05:29:02.271Z,4.40
2017-12-13T05:31:29.865Z,4.18
2017-12-13T05:33:57.388Z,4.70
2017-12-13T05:36:24.931Z,3.83
2017-12-13T05:38:52.606Z,3.95
2017-12-13T05:41:20.122Z,4.10
2017-12-13T05:43:47.643Z,3.85
2017-12-13T05:46:15.154Z,3.60
2017-12-13T05:48:42.931Z,4.85
2017-12-13T05:51:10.643Z,4.43
2017-12-13T05:53:38.157Z,5.00
2017-12-13T05:56:05.697Z,4.25
2017-12-13T05:58:33.207Z,5.22
2017-12-13T06:01:00.731Z,4.53
2017-12-13T06:03:28.256Z,4.78
2017-12-13T06:05:55.752Z,3.95
2017-12-13T06:08:23.301Z,3.95
2017-12-13T06:10:50.830Z,4.43
2017-12-13T06:13:18.351Z,4.43
2017-12-13T06:15:45.877Z,3.40
2017-12-13T06:18:13.377Z,3.37
2017-12-13T06:20:40.893Z,3.78
2017-12-13T06:23:08.416Z,4.65
2017-12-13T06:25:35.938Z,3.83
2017-12-13T06:28:03.511Z,3.92
2017-12-13T06:30:31.040Z,4.45
2017-12-13T06:32:58.555Z,4.82
2017-12-13T06:35:26.102Z,4.25
2017-12-13T06:37:53.618Z,3.80
2017-12-13T06:40:21.168Z,4.40
2017-12-13T06:42:48.721Z,4.68
2017-12-13T06:45:16.249Z,4.65
2017-12-13T06:47:43.777Z,4.62
2017-12-13T06:50:11.313Z,4.05
2017-12-13T06:52:38.833Z,4.37
2017-12-13T06:55:06.351Z,4.00
2017-12-13T06:57:33.861Z,4.15
2017-12-13T07:00:01.391Z,4.25
2017-12-13T07:02:28.999Z,4.28
2017-12-13T07:04:56.532Z,3.17
2017-12-13T07:07:24.051Z,11.27
2017-12-13T07:09:51.584Z,5.57
2017-12-13T07:12:19.101Z,3.60
2017-12-13T07:14:46.636Z,3.85
2017-12-13T07:17:14.148Z,3.22
2017-12-13T07:19:41.652Z,3.00
2017-12-13T07:22:09.156Z,3.28
2017-12-13T07:24:36.713Z,3.20
2017-12-13T07:27:04.236Z,3.70
2017-12-13T07:29:31.768Z,3.70
2017-12-13T07:31:59.313Z,3.30
2017-12-13T07:34:26.831Z,3.05
2017-12-13T07:36:54.363Z,3.10
2017-12-13T07:39:21.922Z,3.65
2017-12-13T07:41:49.414Z,3.60
2017-12-13T07:44:16.932Z,3.90
2017-12-13T07:46:44.468Z,4.53
2017-12-13T07:49:11.998Z,3.95
2017-12-13T07:51:39.532Z,3.65
2017-12-13T07:54:07.053Z,9.52
2017-12-13T07:56:34.568Z,7.45
2017-12-13T07:59:02.107Z,6.35
2017-12-13T08:01:29.652Z,4.65
2017-12-13T08:03:57.162Z,4.28
2017-12-13T08:06:24.699Z,5.00
2017-12-13T08:08:52.207Z,5.60
2017-12-13T08:11:19.724Z,4.85
2017-12-13T08:13:47.271Z,5.15
2017-12-13T08:16:14.793Z,6.22
2017-12-13T08:18:42.316Z,4.57
2017-12-13T08:21:10.037Z,6.87
2017-12-13T08:23:37.544Z,6.75
2017-12-13T08:26:05.069Z,7.72
2017-12-13T08:28:32.638Z,9.75
2017-12-13T08:31:00.176Z,7.95
2017-12-13T08:33:27.723Z,7.25
2017-12-13T08:35:55.249Z,7.15
2017-12-13T08:38:22.783Z,20.37
2017-12-13T08:40:50.365Z,8.05
2017-12-13T08:43:17.894Z,9.35
2017-12-13T08:45:45.463Z,10.68
2017-12-13T08:48:13.002Z,10.20
2017-12-13T08:50:40.533Z,9.50
2017-12-13T08:53:08.056Z,7.27
2017-12-13T08:55:35.584Z,5.30
2017-12-13T08:58:03.168Z,7.17
2017-12-13T09:00:30.697Z,5.70
2017-12-13T09:02:58.234Z,5.27
2017-12-13T09:05:25.751Z,4.33
2017-12-13T09:07:53.277Z,4.83
2017-12-13T09:10:21.002Z,11.93
2017-12-13T09:12:48.529Z,3.27
2017-12-13T09:15:16.093Z,2.70
2017-12-13T09:17:43.607Z,3.33
2017-12-13T09:20:11.128Z,3.43
2017-12-13T09:22:38.814Z,3.47
2017-12-13T09:25:06.462Z,3.80
2017-12-13T09:27:34.007Z,3.10
2017-12-13T09:30:01.584Z,3.30
2017-12-13T09:32:29.104Z,3.40
2017-12-13T09:34:56.613Z,3.67
2017-12-13T09:37:24.116Z,5.20
2017-12-13T09:39:51.644Z,3.80
2017-12-13T09:42:19.182Z,2.83
2017-12-13T09:44:46.718Z,2.50
2017-12-13T09:47:14.229Z,3.30
2017-12-13T09:49:41.754Z,3.07
2017-12-13T09:52:09.268Z,3.80
2017-12-13T09:54:36.797Z,3.50
2017-12-13T09:57:04.339Z,5.53
2017-12-13T09:59:31.863Z,2.93
2017-12-13T10:01:59.395Z,2.60
2017-12-13T10:04:26.924Z,2.20
2017-12-13T10:06:54.463Z,2.03
2017-12-13T10:09:21.974Z,1.67
2017-12-13T10:11:49.494Z,1.90
2017-12-13T10:14:17.008Z,1.77
2017-12-13T10:16:44.549Z,2.57
2017-12-13T10:19:12.070Z,2.03
2017-12-13T10:21:39.602Z,2.30
2017-12-13T10:24:07.172Z,1.90
2017-12-13T10:26:34.838Z,1.73
2017-12-13T10:29:02.363Z,2.20
2017-12-13T10:31:29.874Z,2.87
2017-12-13T10:33:57.389Z,1.73
2017-12-13T10:36:24.938Z,1.77
2017-12-13T10:38:52.467Z,1.80
2017-12-13T10:41:20.020Z,2.00
2017-12-13T10:43:47.579Z,1.40
2017-12-13T10:46:15.104Z,1.97
2017-12-13T10:48:42.641Z,1.70
2017-12-13T10:51:10.173Z,1.40
2017-12-13T10:53:37.689Z,1.90
2017-12-13T10:56:05.224Z,1.47
2017-12-13T10:58:32.750Z,1.70
2017-12-13T11:01:00.299Z,1.60
2017-12-13T11:03:27.838Z,1.60
2017-12-13T11:05:55.348Z,1.50
2017-12-13T11:08:22.880Z,1.33
2017-12-13T11:10:50.388Z,1.50
2017-12-13T11:13:17.949Z,1.27
2017-12-13T11:15:45.440Z,1.40
2017-12-13T11:18:12.953Z,1.40
2017-12-13T11:20:40.480Z,1.60
2017-12-13T11:23:08.038Z,1.60
2017-12-13T11:25:35.573Z,1.53
2017-12-13T11:28:03.080Z,1.43
2017-12-13T11:30:30.590Z,2.20
2017-12-13T11:32:58.097Z,1.77
2017-12-13T11:35:25.618Z,1.80
2017-12-13T11:37:53.180Z,1.73
2017-12-13T11:40:20.713Z,1.70
2017-12-13T11:42:48.228Z,1.70
2017-12-13T11:45:15.763Z,1.53
2017-12-13T11:47:43.305Z,1.83
2017-12-13T11:50:10.814Z,1.77
2017-12-13T11:52:38.370Z,1.90
2017-12-13T11:55:05.898Z,2.30
2017-12-13T11:57:33.432Z,2.00
2017-12-13T12:00:00.954Z,2.47
2017-12-13T12:02:28.460Z,1.97
2017-12-13T12:04:55.979Z,2.30
2017-12-13T12:07:23.494Z,2.10
2017-12-13T12:09:51.000Z,2.20
2017-12-13T12:12:18.513Z,2.20
2017-12-13T12:14:46.019Z,2.20
2017-12-13T12:17:14.599Z,1.97
2017-12-13T12:19:42.128Z,2.13
2017-12-13T12:22:09.686Z,2.53
2017-12-13T12:24:37.214Z,1.90
2017-12-13T12:27:04.729Z,1.93
2017-12-13T12:29:32.289Z,2.80
2017-12-13T12:31:59.814Z,2.50
2017-12-13T12:34:27.513Z,2.90
2017-12-13T12:36:55.059Z,2.60
2017-12-13T12:39:22.574Z,3.00
2017-12-13T12:41:50.104Z,3.03
2017-12-13T12:44:17.629Z,2.73
2017-12-13T12:46:45.163Z,2.27
2017-12-13T12:49:12.664Z,2.40
2017-12-13T12:51:40.186Z,2.30
2017-12-13T12:54:07.730Z,2.90
2017-12-13T12:56:35.250Z,2.40
2017-12-13T12:59:02.771Z,2.60
2017-12-13T13:01:30.293Z,2.80
2017-12-13T13:03:57.796Z,2.57
2017-12-13T13:06:25.310Z,2.40
2017-12-13T13:08:52.848Z,3.50
2017-12-13T13:11:20.403Z,2.43
2017-12-13T13:13:47.923Z,2.33
2017-12-13T13:16:15.428Z,2.70
2017-12-13T13:18:42.961Z,3.63
2017-12-13T13:21:10.479Z,2.70
2017-12-13T13:23:38.016Z,3.03
2017-12-13T13:26:05.521Z,2.33
2017-12-13T13:28:33.071Z,2.40
2017-12-13T13:31:00.584Z,2.67
2017-12-13T13:33:28.114Z,2.23
2017-12-13T13:35:55.640Z,2.80
2017-12-13T13:38:23.157Z,2.27
2017-12-13T13:40:50.676Z,2.30
2017-12-13T13:43:18.211Z,2.40
2017-12-13T13:45:45.862Z,2.80
2017-12-13T13:48:13.373Z,2.63
2017-12-13T13:50:40.902Z,2.33
2017-12-13T13:53:08.420Z,2.47
2017-12-13T13:55:36.060Z,2.60
2017-12-13T13:58:03.573Z,2.43
2017-12-13T14:00:31.117Z,2.20
2017-12-13T14:02:58.664Z,3.10
2017-12-13T14:05:26.173Z,2.73
2017-12-13T14:07:53.686Z,2.80
2017-12-13T14:10:21.209Z,2.50
2017-12-13T14:12:48.720Z,2.70
2017-12-13T14:15:16.286Z,2.80
2017-12-13T14:17:43.823Z,3.00
2017-12-13T14:20:11.330Z,2.47
2017-12-13T14:22:38.863Z,2.63
2017-12-13T14:25:06.375Z,3.03
2017-12-13T14:27:33.882Z,2.70
2017-12-13T14:30:01.401Z,3.03
2017-12-13T14:32:28.916Z,2.90
2017-12-13T14:34:56.436Z,7.00
2017-12-13T14:37:23.944Z,16.40
2017-12-13T14:39:51.485Z,14.13
2017-12-13T14:42:19.014Z,6.13
2017-12-13T14:44:46.570Z,6.73
2017-12-13T14:47:14.120Z,4.53
2017-12-13T14:49:41.671Z,11.83
2017-12-13T14:52:09.215Z,6.90
2017-12-13T14:54:36.744Z,9.40
2017-12-13T14:57:04.338Z,7.20
2017-12-13T14:59:31.848Z,5.23
2017-12-13T15:01:59.391Z,2.80
2017-12-13T15:04:26.916Z,2.97
2017-12-13T15:06:54.436Z,2.70
2017-12-13T15:09:21.939Z,2.77
2017-12-13T15:11:49.455Z,3.80
2017-12-13T15:14:16.974Z,2.97
2017-12-13T15:16:44.531Z,2.43
2017-12-13T15:19:12.049Z,2.43
2017-12-13T15:21:39.565Z,2.43
2017-12-13T15:24:07.079Z,2.20
2017-12-13T15:26:34.681Z,3.70
2017-12-13T15:29:02.210Z,1.63
2017-12-13T15:31:29.735Z,1.90
2017-12-13T15:33:57.326Z,28.27
2017-12-13T15:36:24.884Z,11.00
2017-12-13T15:38:52.406Z,2.23
2017-12-13T15:41:19.936Z,2.00
2017-12-13T15:43:47.457Z,1.37
2017-12-13T15:46:14.972Z,1.57
2017-12-13T15:48:42.549Z,4.83
2017-12-13T15:51:10.059Z,0.93
2017-12-13T15:53:37.764Z,1.00
2017-12-13T15:56:05.330Z,1.60
2017-12-13T15:58:32.875Z,2.60
2017-12-13T16:01:00.394Z,0.80
2017-12-13T16:03:27.902Z,0.70
2017-12-13T16:05:55.436Z,1.03
2017-12-13T16:08:22.965Z,0.93
2017-12-13T16:10:50.482Z,1.00
2017-12-13T16:13:18.011Z,1.07
2017-12-13T16:15:45.701Z,0.80
2017-12-13T16:18:13.219Z,0.70
2017-12-13T16:20:40.802Z,0.80
2017-12-13T16:23:08.286Z,0.70
2017-12-13T16:25:35.821Z,0.90
2017-12-13T16:28:03.371Z,0.60
2017-12-13T16:30:30.892Z,0.80
2017-12-13T16:32:58.413Z,0.70
2017-12-13T16:35:25.945Z,0.50
2017-12-13T16:37:53.472Z,0.70
2017-12-13T16:40:21.090Z,0.70
2017-12-13T16:42:48.640Z,0.67
2017-12-13T16:45:16.160Z,0.83
2017-12-13T16:47:43.709Z,0.90
2017-12-13T16:50:11.248Z,0.60
2017-12-13T16:52:38.775Z,0.70
2017-12-13T16:55:06.307Z,0.60
2017-12-13T16:57:33.855Z,0.60
2017-12-13T17:00:01.376Z,3.77
2017-12-13T17:02:28.883Z,0.90
2017-12-13T17:04:56.401Z,1.27
2017-12-13T17:07:23.931Z,0.77
2017-12-13T17:09:51.459Z,1.10
2017-12-13T17:12:19.050Z,0.83
2017-12-13T17:14:46.555Z,0.70
2017-12-13T17:17:14.117Z,0.70
2017-12-13T17:19:41.673Z,0.50
2017-12-13T17:22:09.204Z,0.60
2017-12-13T17:24:36.720Z,3.73
2017-12-13T17:27:04.314Z,0.57
2017-12-13T17:29:31.855Z,0.53
2017-12-13T17:31:59.370Z,0.63
2017-12-13T17:34:26.889Z,1.13
2017-12-13T17:36:54.419Z,0.70
2017-12-13T17:39:21.931Z,0.60
2017-12-13T17:41:49.437Z,0.60
2017-12-13T17:44:16.977Z,0.60
2017-12-13T17:46:44.535Z,0.60
2017-12-13T17:49:12.064Z,0.70
2017-12-13T17:51:39.690Z,0.70
2017-12-13T17:54:07.206Z,0.50
2017-12-13T17:56:34.737Z,0.70
2017-12-13T17:59:02.255Z,1.00
2017-12-13T18:01:29.829Z,1.70
2017-12-13T18:03:57.381Z,0.53
2017-12-13T18:06:24.901Z,0.77
2017-12-13T18:08:52.430Z,0.50
2017-12-13T18:11:20.069Z,0.60
2017-12-13T18:13:47.593Z,0.60
2017-12-13T18:16:15.132Z,1.10
2017-12-13T18:18:42.668Z,0.50
2017-12-13T18:21:10.201Z,0.50
2017-12-13T18:23:37.740Z,0.80
2017-12-13T18:26:05.286Z,0.70
2017-12-13T18:28:32.837Z,0.40
2017-12-13T18:31:00.342Z,0.50
2017-12-13T18:33:27.876Z,0.50
2017-12-13T18:35:55.393Z,0.50
2017-12-13T18:38:22.915Z,0.67
2017-12-13T18:40:50.480Z,0.47
2017-12-13T18:43:18.000Z,0.50
2017-12-13T18:45:45.523Z,0.80
2017-12-13T18:48:13.042Z,0.50
2017-12-13T18:50:40.577Z,0.40
2017-12-13T18:53:08.122Z,0.80
2017-12-13T18:55:35.689Z,0.67
2017-12-13T18:58:03.328Z,0.63
2017-12-13T19:00:30.847Z,0.67
2017-12-13T19:02:58.495Z,0.57
2017-12-13T19:05:26.045Z,0.47
2017-12-13T19:07:53.595Z,0.97
2017-12-13T19:10:21.132Z,1.30
2017-12-13T19:12:48.691Z,1.10
2017-12-13T19:15:16.220Z,1.30
2017-12-13T19:17:43.758Z,1.50
2017-12-13T19:20:11.313Z,1.00
2017-12-13T19:22:38.827Z,0.87
2017-12-13T19:25:06.400Z,1.37
2017-12-13T19:27:33.946Z,1.40
2017-12-13T19:30:01.506Z,0.90
2017-12-13T19:32:29.047Z,0.80
2017-12-13T19:34:56.580Z,0.80
2017-12-13T19:37:24.103Z,0.77
2017-12-13T19:39:51.627Z,0.90
2017-12-13T19:42:19.210Z,0.87
2017-12-13T19:44:46.729Z,1.40
2017-12-13T19:47:14.405Z,0.83
2017-12-13T19:49:41.963Z,0.90
2017-12-13T19:52:09.510Z,1.00
2017-12-13T19:54:37.071Z,0.90
2017-12-13T19:57:04.607Z,0.70
2017-12-13T19:59:32.149Z,0.90
2017-12-13T20:01:59.700Z,0.83
2017-12-13T20:04:27.256Z,1.00
2017-12-13T20:06:54.812Z,0.90
2017-12-13T20:09:22.356Z,0.87
2017-12-13T20:11:49.901Z,0.80
2017-12-13T20:14:17.456Z,0.60
2017-12-13T20:16:44.980Z,0.80
2017-12-13T20:19:12.520Z,3.30
2017-12-13T20:21:40.055Z,4.03
2017-12-13T20:24:07.606Z,0.80
2017-12-13T20:26:35.140Z,1.07
2017-12-13T20:29:02.675Z,0.90
2017-12-13T20:31:30.202Z,0.63
2017-12-13T20:33:57.724Z,0.60
2017-12-13T20:36:25.280Z,0.70
2017-12-13T20:38:52.800Z,0.50
2017-12-13T20:41:20.330Z,0.40
2017-12-13T20:43:47.871Z,0.47
2017-12-13T20:46:15.529Z,0.40
2017-12-13T20:48:43.034Z,0.50
2017-12-13T20:51:10.564Z,0.60
2017-12-13T20:53:38.081Z,0.50
2017-12-13T20:56:05.672Z,0.50
2017-12-13T20:58:33.210Z,0.50
2017-12-13T21:01:00.886Z,0.40
2017-12-13T21:03:28.459Z,0.40
2017-12-13T21:05:55.974Z,0.40
2017-12-13T21:08:23.491Z,0.40
2017-12-13T21:10:51.026Z,0.60
2017-12-13T21:13:18.577Z,0.40
2017-12-13T21:15:46.106Z,0.50
2017-12-13T21:18:13.639Z,0.50
2017-12-13T21:20:41.168Z,0.50
2017-12-13T21:23:08.690Z,0.50
2017-12-13T21:25:36.214Z,0.50
2017-12-13T21:28:03.754Z,0.47
2017-12-13T21:30:31.281Z,0.47
2017-12-13T21:32:58.808Z,0.70
2017-12-13T21:35:26.336Z,0.60
2017-12-13T21:37:53.865Z,0.40
2017-12-13T21:40:21.396Z,0.80
2017-12-13T21:42:48.951Z,0.50
2017-12-13T21:45:16.483Z,0.40
2017-12-13T21:47:43.997Z,0.70
2017-12-13T21:50:11.522Z,0.50
2017-12-13T21:52:39.023Z,0.40
2017-12-13T21:55:06.581Z,0.40
2017-12-13T21:57:34.096Z,0.63
2017-12-13T22:00:01.616Z,0.40
2017-12-13T22:02:29.163Z,0.60
2017-12-13T22:04:56.726Z,0.50
2017-12-13T22:07:24.261Z,0.37
2017-12-13T22:09:51.824Z,0.37
2017-12-13T22:12:19.346Z,0.30
2017-12-13T22:14:46.856Z,0.50
2017-12-13T22:17:14.403Z,0.40
2017-12-13T22:19:41.940Z,0.30
2017-12-13T22:22:09.446Z,0.40
2017-12-13T22:24:37.031Z,0.57
2017-12-13T22:27:04.582Z,0.40
2017-12-13T22:29:32.114Z,0.30
2017-12-13T23:12:12.992Z,0.50
2017-12-13T23:14:40.524Z,0.30
2017-12-13T23:17:08.052Z,0.40
2017-12-13T23:19:35.589Z,0.33
2017-12-13T23:22:03.102Z,0.30
2017-12-13T23:24:30.602Z,0.30
2017-12-13T23:26:58.132Z,0.30
2017-12-13T23:29:25.654Z,0.40
2017-12-13T23:31:53.207Z,0.30
2017-12-13T23:34:20.730Z,0.40
2017-12-13T23:36:48.269Z,0.40
2017-12-13T23:39:15.782Z,0.30
2017-12-13T23:41:43.286Z,0.30
2017-12-13T23:44:10.813Z,0.30
2017-12-13T23:46:38.422Z,0.40
2017-12-13T23:49:05.925Z,0.30
2017-12-13T23:51:33.458Z,0.30
2017-12-13T23:54:00.968Z,0.30
2017-12-13T23:56:28.477Z,0.30
2017-12-13T23:58:55.978Z,0.30
